Time;durP1;ratioP1;P1;durP2;ratioP2;P2;SDS_P1;SDS_P2;PMS_P1;PMS_P2;Temp;Humidity;BMP_temperature;BMP_pressure;BME280_temperature;BME280_humidity;BME280_pressure;Samples;Min_cycle;Max_cycle;Signal;HPM_P1;HPM_P2
2021/03/30 07:01:15;;;;;;;15.10;11.33;;;;;;;;;;6266873;22;1604667;-96
2021/03/30 07:09:13;;;;;;;12.27;8.87;;;;;;;;;;6293214;22;20418;-96
2021/03/30 07:11:42;;;;;;;12.33;8.53;;;;;;;;;;6329153;22;20415;-96
2021/03/30 07:14:08;;;;;;;10.50;8.70;;;;;;;;;;6328054;22;20414;-96
2021/03/30 07:16:36;;;;;;;15.00;9.00;;;;;;;;;;6329414;22;20409;-96
2021/03/30 07:19:05;;;;;;;10.20;7.20;;;;;;;;;;6333294;22;20427;-96
2021/03/30 07:21:33;;;;;;;8.40;7.60;;;;;;;;;;6331142;22;20963;-96
2021/03/30 07:24:10;;;;;;;9.77;6.47;;;;;;;;;;6327443;22;20508;-96
2021/03/30 07:42:40;;;;;;;11.23;8.90;;;;;;;;;;6278729;22;20541;-93
2021/03/30 07:45:09;;;;;;;12.63;9.00;;;;;;;;;;6331785;22;20391;-96
2021/03/30 07:47:48;;;;;;;15.23;8.30;;;;;;;;;;6326836;22;20451;-96
2021/03/30 07:50:16;;;;;;;12.40;7.97;;;;;;;;;;6286439;22;20505;-96
2021/03/30 07:52:51;;;;;;;9.97;8.40;;;;;;;;;;6268445;23;20444;-96
2021/03/30 07:55:21;;;;;;;11.93;8.07;;;;;;;;;;6262625;23;20782;-95
2021/03/30 07:58:02;;;;;;;10.10;7.50;;;;;;;;;;6258451;23;20444;-95
2021/03/30 08:00:47;;;;;;;10.07;7.40;;;;;;;;;;6254176;23;20420;-95
2021/03/30 08:03:18;;;;;;;9.50;7.33;;;;;;;;;;6262275;23;20412;-96
2021/03/30 08:05:59;;;;;;;10.37;6.80;;;;;;;;;;6267310;23;20429;-96
2021/03/30 08:08:30;;;;;;;10.63;7.70;;;;;;;;;;6266799;23;20417;-96
2021/03/30 08:38:59;;;;;;;14.80;6.10;;;;;;;;;;6299336;22;20575;-96
2021/03/30 08:53:18;;;;;;;6.90;6.17;;;;;;;;;;6299380;22;20443;-96
2021/03/30 08:58:34;;;;;;;9.97;5.60;;;;;;;;;;6331059;22;20452;-96
2021/03/30 09:01:07;;;;;;;9.20;4.33;;;;;;;;;;6323029;22;20448;-96
2021/03/30 09:03:38;;;;;;;5.97;4.43;;;;;;;;;;6327278;22;20939;-95
2021/03/30 09:06:25;;;;;;;6.30;3.97;;;;;;;;;;6325826;22;20459;-96
2021/03/30 09:08:59;;;;;;;7.73;4.87;;;;;;;;;;6324623;22;20414;-96
2021/03/30 09:11:26;;;;;;;8.00;4.60;;;;;;;;;;6323277;22;20404;-96
2021/03/30 09:14:03;;;;;;;6.93;3.60;;;;;;;;;;6325924;22;20408;-96
2021/03/30 09:16:45;;;;;;;13.70;3.77;;;;;;;;;;6325102;22;20480;-96
2021/03/30 09:19:26;;;;;;;4.53;3.60;;;;;;;;;;6320491;22;20404;-94
2021/03/30 09:22:00;;;;;;;4.63;3.80;;;;;;;;;;6322734;22;20403;-94
2021/03/30 09:27:17;;;;;;;6.30;3.53;;;;;;;;;;6323478;22;20523;-96
2021/03/30 09:29:45;;;;;;;6.27;3.30;;;;;;;;;;6324617;22;20411;-96
2021/03/30 09:32:21;;;;;;;6.40;3.30;;;;;;;;;;6322317;22;20438;-96
2021/03/30 09:34:47;;;;;;;7.17;3.97;;;;;;;;;;6319955;22;20415;-94
2021/03/30 09:37:13;;;;;;;7.57;3.97;;;;;;;;;;6322369;22;20418;-96
2021/03/30 09:39:40;;;;;;;6.17;3.70;;;;;;;;;;6322723;22;20408;-96
2021/03/30 09:42:12;;;;;;;7.57;4.07;;;;;;;;;;6325956;22;20430;-96
2021/03/30 09:44:42;;;;;;;5.00;4.10;;;;;;;;;;6325443;22;20415;-96
2021/03/30 09:47:15;;;;;;;4.70;3.13;;;;;;;;;;6324154;22;20448;-96
2021/03/30 09:50:12;;;;;;;4.33;2.97;;;;;;;;;;6304527;22;20439;-96
2021/03/30 09:52:38;;;;;;;5.60;3.57;;;;;;;;;;6298808;22;20448;-96
2021/03/30 09:55:11;;;;;;;4.23;3.27;;;;;;;;;;6325061;22;20402;-96
2021/03/30 09:57:38;;;;;;;3.83;3.33;;;;;;;;;;6261208;22;20523;-95
2021/03/30 10:00:14;;;;;;;4.83;3.13;;;;;;;;;;6298369;22;20431;-96
2021/03/30 10:02:44;;;;;;;6.90;3.50;;;;;;;;;;6265901;22;20424;-96
2021/03/30 10:08:26;;;;;;;5.13;3.70;;;;;;;;;;6319787;22;20470;-96
2021/03/30 10:11:02;;;;;;;14.33;3.77;;;;;;;;;;6329717;22;20434;-96
2021/03/30 10:19:14;;;;;;;3.67;3.17;;;;;;;;;;6325971;22;20463;-96
2021/03/30 10:21:41;;;;;;;5.87;3.10;;;;;;;;;;6322985;22;20459;-96
2021/03/30 10:24:31;;;;;;;6.67;3.13;;;;;;;;;;6330479;22;20482;-96
2021/03/30 10:27:06;;;;;;;3.67;2.80;;;;;;;;;;6321116;22;20454;-95
2021/03/30 10:29:33;;;;;;;4.13;3.07;;;;;;;;;;6321535;22;20396;-95
2021/03/30 10:32:06;;;;;;;3.37;3.07;;;;;;;;;;6293416;22;20412;-94
2021/03/30 10:34:34;;;;;;;12.20;4.37;;;;;;;;;;6320939;22;20411;-95
2021/03/30 10:37:01;;;;;;;3.67;3.20;;;;;;;;;;6318025;22;20418;-95
2021/03/30 10:42:13;;;;;;;3.90;3.23;;;;;;;;;;6319122;22;20416;-96
2021/03/30 10:44:43;;;;;;;4.07;2.80;;;;;;;;;;6295885;22;20442;-96
2021/03/30 10:47:14;;;;;;;4.80;3.37;;;;;;;;;;6324901;22;20439;-96
2021/03/30 10:49:43;;;;;;;4.20;3.53;;;;;;;;;;6324459;22;20424;-96
2021/03/30 10:52:15;;;;;;;4.40;2.80;;;;;;;;;;6321841;22;20453;-96
2021/03/30 10:54:46;;;;;;;5.50;3.30;;;;;;;;;;6322670;22;20415;-96
2021/03/30 10:57:15;;;;;;;5.67;3.40;;;;;;;;;;6321207;22;20412;-96
2021/03/30 10:59:42;;;;;;;6.33;3.10;;;;;;;;;;6326357;22;20384;-96
2021/03/30 11:02:09;;;;;;;8.77;3.53;;;;;;;;;;6322912;22;20404;-96
2021/03/30 11:04:43;;;;;;;3.80;3.07;;;;;;;;;;6316704;22;20475;-93
2021/03/30 11:07:15;;;;;;;3.70;2.87;;;;;;;;;;6320077;22;20994;-96
2021/03/30 11:09:52;;;;;;;8.50;3.53;;;;;;;;;;6323041;22;20396;-96
2021/03/30 11:12:20;;;;;;;9.80;4.10;;;;;;;;;;6322085;22;20408;-93
2021/03/30 11:14:46;;;;;;;4.50;3.50;;;;;;;;;;6320166;22;20414;-96
2021/03/30 11:17:12;;;;;;;3.10;2.80;;;;;;;;;;6322187;22;20416;-96
2021/03/30 11:19:45;;;;;;;12.80;3.80;;;;;;;;;;6323294;22;20411;-95
2021/03/30 11:22:13;;;;;;;5.77;3.80;;;;;;;;;;6320606;22;20469;-95
2021/03/30 11:24:44;;;;;;;8.60;3.30;;;;;;;;;;6325135;22;20400;-96
2021/03/30 11:27:11;;;;;;;5.10;3.40;;;;;;;;;;6323135;22;20478;-95
2021/03/30 11:29:45;;;;;;;4.73;3.50;;;;;;;;;;6324617;22;20510;-96
2021/03/30 11:44:40;;;;;;;3.73;3.43;;;;;;;;;;5094781;27;879975;-93
2021/03/30 11:47:13;;;;;;;7.60;3.80;;;;;;;;;;5106771;28;20190;-96
2021/03/30 11:49:39;;;;;;;4.30;3.90;;;;;;;;;;5106262;28;20445;-96
2021/03/30 11:52:06;;;;;;;5.53;3.80;;;;;;;;;;5110978;28;20480;-96
2021/03/30 11:54:33;;;;;;;5.30;3.60;;;;;;;;;;5108615;28;20438;-96
2021/03/30 11:57:00;;;;;;;6.83;3.40;;;;;;;;;;5098008;28;20479;-96
2021/03/30 11:59:26;;;;;;;4.43;3.20;;;;;;;;;;5107188;28;20464;-95
2021/03/30 12:01:53;;;;;;;5.23;3.37;;;;;;;;;;5114176;28;20492;-96
2021/03/30 12:04:21;;;;;;;8.43;4.00;;;;;;;;;;5112253;28;20446;-96
2021/03/30 12:06:47;;;;;;;7.63;3.17;;;;;;;;;;5111180;28;20457;-96
2021/03/30 12:11:56;;;;;;;6.07;5.00;;;;;;;;;;5109267;28;20509;-96
2021/03/30 12:14:22;;;;;;;5.03;4.13;;;;;;;;;;5122486;28;20432;-96
2021/03/30 12:16:51;;;;;;;10.37;4.23;;;;;;;;;;5107774;28;20517;-96
2021/03/30 12:19:19;;;;;;;6.63;4.10;;;;;;;;;;5107836;28;21012;-96
2021/03/30 12:21:46;;;;;;;3.70;3.23;;;;;;;;;;5114424;28;20457;-96
2021/03/30 12:24:13;;;;;;;4.00;3.47;;;;;;;;;;5123040;28;20457;-94
2021/03/30 12:26:39;;;;;;;5.17;3.87;;;;;;;;;;5118973;28;20460;-94
2021/03/30 12:29:07;;;;;;;3.50;3.20;;;;;;;;;;5110533;28;20525;-96
2021/03/30 12:31:34;;;;;;;7.33;3.77;;;;;;;;;;5114326;28;20460;-96
2021/03/30 12:34:00;;;;;;;5.50;3.80;;;;;;;;;;5121361;28;20487;-95
2021/03/30 12:36:30;;;;;;;10.80;3.50;;;;;;;;;;5107551;28;20458;-95
2021/03/30 12:38:56;;;;;;;4.33;3.77;;;;;;;;;;5102309;28;20473;-96
2021/03/30 12:41:24;;;;;;;7.47;3.87;;;;;;;;;;5087461;28;20460;-96
2021/03/30 12:43:53;;;;;;;5.60;3.50;;;;;;;;;;5101777;28;20485;-96
2021/03/30 12:46:22;;;;;;;7.20;4.03;;;;;;;;;;5098924;28;20445;-96
2021/03/30 12:48:50;;;;;;;7.23;4.10;;;;;;;;;;5104927;28;20470;-95
2021/03/30 12:51:16;;;;;;;4.83;4.30;;;;;;;;;;5106945;28;20447;-95
2021/03/30 12:53:43;;;;;;;3.90;3.57;;;;;;;;;;5103993;28;20484;-94
2021/03/30 12:56:31;;;;;;;4.07;3.63;;;;;;;;;;5101586;28;20450;-95
2021/03/30 12:58:59;;;;;;;4.07;3.50;;;;;;;;;;5109082;28;20450;-95
2021/03/30 13:01:25;;;;;;;8.57;3.60;;;;;;;;;;5104827;28;20522;-93
2021/03/30 13:03:51;;;;;;;8.40;3.80;;;;;;;;;;5080214;28;20463;-94
2021/03/30 13:06:20;;;;;;;4.37;3.60;;;;;;;;;;5096612;28;20440;-95
2021/03/30 13:08:51;;;;;;;5.47;4.00;;;;;;;;;;5094812;28;20454;-96
2021/03/30 13:11:18;;;;;;;6.00;4.23;;;;;;;;;;5092321;28;20464;-95
2021/03/30 13:13:47;;;;;;;5.20;3.77;;;;;;;;;;5100428;28;20517;-95
2021/03/30 13:16:13;;;;;;;5.80;3.50;;;;;;;;;;5097825;28;20468;-96
2021/03/30 13:18:39;;;;;;;6.50;5.43;;;;;;;;;;5101780;28;20458;-95
2021/03/30 13:21:07;;;;;;;6.10;3.73;;;;;;;;;;5107324;28;20536;-96
2021/03/30 13:23:35;;;;;;;4.70;3.50;;;;;;;;;;5105103;28;20453;-96
2021/03/30 13:26:02;;;;;;;4.40;4.00;;;;;;;;;;5092582;28;20449;-96
2021/03/30 13:28:30;;;;;;;5.10;3.57;;;;;;;;;;5106217;28;20456;-95
2021/03/30 13:31:01;;;;;;;7.33;4.47;;;;;;;;;;5103119;28;21143;-96
2021/03/30 13:33:27;;;;;;;5.50;4.20;;;;;;;;;;5098838;28;21134;-94
2021/03/30 13:35:53;;;;;;;7.13;4.10;;;;;;;;;;5095726;28;20528;-96
2021/03/30 13:38:19;;;;;;;11.40;5.10;;;;;;;;;;5096320;28;20502;-96
2021/03/30 13:40:46;;;;;;;6.07;4.27;;;;;;;;;;5099739;28;20452;-92
2021/03/30 13:43:14;;;;;;;7.20;4.50;;;;;;;;;;5097414;28;20498;-94
2021/03/30 13:45:42;;;;;;;6.07;4.40;;;;;;;;;;5097794;28;20464;-96
2021/03/30 13:48:10;;;;;;;6.30;4.97;;;;;;;;;;5089350;28;20460;-96
2021/03/30 13:50:36;;;;;;;5.27;4.43;;;;;;;;;;5089295;28;21192;-96
2021/03/30 13:53:04;;;;;;;7.50;5.10;;;;;;;;;;5106438;28;20492;-95
2021/03/30 13:55:31;;;;;;;5.63;4.37;;;;;;;;;;5101201;28;20528;-93
2021/03/30 13:57:57;;;;;;;6.23;4.60;;;;;;;;;;5105521;28;20446;-93
2021/03/30 14:00:27;;;;;;;6.80;4.10;;;;;;;;;;5085144;28;20452;-96
2021/03/30 14:02:54;;;;;;;5.60;4.20;;;;;;;;;;5098934;28;20468;-96
2021/03/30 14:05:21;;;;;;;4.90;4.23;;;;;;;;;;5097920;28;20457;-96
2021/03/30 14:07:47;;;;;;;7.57;4.97;;;;;;;;;;5101128;28;20469;-95
2021/03/30 14:10:19;;;;;;;8.30;4.80;;;;;;;;;;5090555;28;20452;-93
2021/03/30 14:12:54;;;;;;;5.60;4.13;;;;;;;;;;5100801;28;20499;-96
2021/03/30 14:15:30;;;;;;;8.27;4.77;;;;;;;;;;5082469;28;20449;-94
2021/03/30 14:18:10;;;;;;;7.03;4.47;;;;;;;;;;5091591;28;20460;-96
2021/03/30 14:20:48;;;;;;;7.53;4.20;;;;;;;;;;5089642;28;20445;-95
2021/03/30 14:23:26;;;;;;;7.30;5.23;;;;;;;;;;5086553;28;20464;-93
2021/03/30 14:25:54;;;;;;;10.20;5.37;;;;;;;;;;5083780;28;20457;-96
2021/03/30 14:28:25;;;;;;;5.40;4.90;;;;;;;;;;5088336;28;20436;-95
2021/03/30 14:30:51;;;;;;;5.03;4.50;;;;;;;;;;5081479;28;20453;-96
2021/03/30 14:33:20;;;;;;;7.70;5.30;;;;;;;;;;5100292;28;20531;-96
2021/03/30 14:35:51;;;;;;;6.33;5.03;;;;;;;;;;5100903;28;20444;-96
2021/03/30 14:38:18;;;;;;;6.40;4.43;;;;;;;;;;5105561;28;20899;-96
2021/03/30 14:40:49;;;;;;;8.70;4.60;;;;;;;;;;5096750;28;20517;-96
2021/03/30 14:43:20;;;;;;;5.20;4.70;;;;;;;;;;5088363;28;20497;-95
2021/03/30 14:46:13;;;;;;;9.10;5.23;;;;;;;;;;5086188;28;20468;-96
2021/03/30 14:54:55;;;;;;;7.63;4.70;;;;;;;;;;5096010;28;20457;-96
2021/03/30 14:57:28;;;;;;;8.10;4.33;;;;;;;;;;5095903;28;20448;-96
2021/03/30 14:59:57;;;;;;;5.67;4.67;;;;;;;;;;5094446;28;20455;-96
2021/03/30 15:02:41;;;;;;;5.83;4.93;;;;;;;;;;5076541;28;20440;-94
2021/03/30 15:05:08;;;;;;;8.00;4.80;;;;;;;;;;5097883;28;20449;-95
2021/03/30 15:07:41;;;;;;;6.77;4.27;;;;;;;;;;5097259;28;20503;-96
2021/03/30 15:10:09;;;;;;;5.13;4.10;;;;;;;;;;5091483;28;20542;-93
2021/03/30 15:12:37;;;;;;;4.50;3.60;;;;;;;;;;5090499;28;20464;-95
2021/03/30 15:15:03;;;;;;;8.30;5.10;;;;;;;;;;5123524;22;20500;-95
2021/03/30 15:17:29;;;;;;;5.30;4.30;;;;;;;;;;5092240;28;20448;-96
2021/03/30 15:19:58;;;;;;;4.93;4.43;;;;;;;;;;5105301;28;20451;-96
2021/03/30 15:22:25;;;;;;;7.50;4.50;;;;;;;;;;5101010;28;20445;-95
2021/03/30 15:24:53;;;;;;;4.83;4.23;;;;;;;;;;5103012;28;20421;-96
2021/03/30 15:27:29;;;;;;;6.60;4.93;;;;;;;;;;5096350;28;20437;-96
2021/03/30 15:32:25;;;;;;;5.80;4.63;;;;;;;;;;5121531;22;20483;-96
2021/03/30 15:34:54;;;;;;;7.77;4.80;;;;;;;;;;5083453;22;20239;-96
2021/03/30 15:37:32;;;;;;;5.13;4.63;;;;;;;;;;5082091;28;20460;-95
2021/03/30 15:40:02;;;;;;;6.93;5.07;;;;;;;;;;5083231;28;20475;-96
2021/03/30 15:42:29;;;;;;;5.13;4.60;;;;;;;;;;5086861;28;20446;-96
2021/03/30 15:47:47;;;;;;;6.27;5.67;;;;;;;;;;5078906;28;20445;-96
2021/03/30 15:50:15;;;;;;;10.70;4.90;;;;;;;;;;5172406;22;20459;-95
2021/03/30 15:52:43;;;;;;;7.27;5.30;;;;;;;;;;5009670;28;20523;-96
2021/03/30 15:55:30;;;;;;;5.50;4.80;;;;;;;;;;5018084;28;20955;-96
2021/03/30 15:57:56;;;;;;;8.67;4.90;;;;;;;;;;5056197;23;20501;-96
2021/03/30 16:00:24;;;;;;;5.10;4.70;;;;;;;;;;5068566;28;20469;-95
2021/03/30 16:02:51;;;;;;;5.30;4.60;;;;;;;;;;5067576;28;20434;-95
2021/03/30 16:05:21;;;;;;;5.17;4.67;;;;;;;;;;5063994;28;20474;-95
2021/03/30 16:07:53;;;;;;;7.03;3.40;;;;;;;;;;5066503;28;20434;-95
2021/03/30 16:10:27;;;;;;;5.60;4.40;;;;;;;;;;5064977;28;20470;-96
2021/03/30 16:12:54;;;;;;;5.00;4.50;;;;;;;;;;5067719;28;20489;-93
2021/03/30 16:15:21;;;;;;;10.40;4.70;;;;;;;;;;5066827;28;20469;-96
2021/03/30 16:17:49;;;;;;;4.60;4.07;;;;;;;;;;5047353;28;20446;-96
2021/03/30 16:20:16;;;;;;;5.13;4.70;;;;;;;;;;5063762;28;20850;-96
2021/03/30 16:22:45;;;;;;;5.03;4.63;;;;;;;;;;5055631;28;20478;-93
2021/03/30 16:25:22;;;;;;;6.73;5.63;;;;;;;;;;5072400;28;20460;-96
2021/03/30 16:27:48;;;;;;;8.90;6.30;;;;;;;;;;5050674;28;20532;-93
2021/03/30 16:30:15;;;;;;;6.13;5.07;;;;;;;;;;5053362;28;20449;-96
2021/03/30 16:32:43;;;;;;;8.80;6.93;;;;;;;;;;5068656;28;20486;-95
2021/03/30 16:35:10;;;;;;;7.23;6.40;;;;;;;;;;5067848;28;20442;-95
2021/03/30 16:37:36;;;;;;;8.73;5.60;;;;;;;;;;5143109;22;20503;-94
2021/03/30 16:40:02;;;;;;;8.17;6.40;;;;;;;;;;5070248;28;20445;-95
2021/03/30 16:42:28;;;;;;;10.57;6.17;;;;;;;;;;5089350;28;20455;-96
2021/03/30 16:44:55;;;;;;;8.87;6.67;;;;;;;;;;5071735;28;20760;-94
2021/03/30 16:47:22;;;;;;;10.40;6.90;;;;;;;;;;5082448;28;20456;-95
2021/03/30 16:49:51;;;;;;;11.77;8.77;;;;;;;;;;5076958;28;20485;-96
2021/03/30 16:52:17;;;;;;;9.90;7.90;;;;;;;;;;5072150;28;20515;-96
2021/03/30 16:54:43;;;;;;;12.23;8.37;;;;;;;;;;5077636;28;20446;-96
2021/03/30 16:59:59;;;;;;;9.37;7.70;;;;;;;;;;5069719;22;20562;-96
2021/03/30 17:02:29;;;;;;;12.87;8.93;;;;;;;;;;5357480;22;20481;-96
2021/03/30 17:04:55;;;;;;;13.80;9.33;;;;;;;;;;5096635;28;20453;-94
2021/03/30 17:07:21;;;;;;;18.03;10.07;;;;;;;;;;5100231;28;20466;-95
2021/03/30 17:09:48;;;;;;;16.97;11.73;;;;;;;;;;5112913;28;20450;-96
2021/03/30 17:12:15;;;;;;;18.87;14.37;;;;;;;;;;5092371;28;21053;-96
2021/03/30 17:14:54;;;;;;;19.83;13.97;;;;;;;;;;5091372;28;20449;-96
2021/03/30 17:17:21;;;;;;;11.00;8.60;;;;;;;;;;5100184;28;20456;-94
2021/03/30 17:19:50;;;;;;;11.57;7.90;;;;;;;;;;5114588;28;20436;-96
2021/03/30 17:22:27;;;;;;;8.07;7.27;;;;;;;;;;5099150;28;20811;-96
2021/03/30 17:25:04;;;;;;;6.33;5.73;;;;;;;;;;5104159;28;20478;-96
2021/03/30 17:30:29;;;;;;;11.40;7.20;;;;;;;;;;5058408;28;20497;-96
2021/03/30 17:32:55;;;;;;;14.70;7.17;;;;;;;;;;5088743;23;20463;-96
2021/03/30 17:35:38;;;;;;;8.83;6.80;;;;;;;;;;5105640;22;20519;-96
2021/03/30 17:41:11;;;;;;;6.93;5.20;;;;;;;;;;5172097;22;20471;-96
2021/03/30 17:43:43;;;;;;;7.77;6.80;;;;;;;;;;5114125;28;20460;-96
2021/03/30 17:46:31;;;;;;;7.57;6.33;;;;;;;;;;5123069;28;20447;-96
2021/03/30 17:49:21;;;;;;;8.20;6.77;;;;;;;;;;5110107;22;20556;-96
2021/03/30 17:51:47;;;;;;;11.23;8.43;;;;;;;;;;5084663;28;20473;-95
2021/03/30 17:54:14;;;;;;;16.63;11.10;;;;;;;;;;5087907;28;20484;-96
2021/03/30 17:56:40;;;;;;;12.07;9.00;;;;;;;;;;5090615;28;20440;-95
2021/03/30 17:59:07;;;;;;;16.30;11.60;;;;;;;;;;5095730;28;20432;-96
2021/03/30 18:01:33;;;;;;;16.90;12.50;;;;;;;;;;5085220;28;20468;-96
2021/03/30 18:03:59;;;;;;;19.23;13.43;;;;;;;;;;5097002;28;20442;-96
2021/03/30 18:06:25;;;;;;;12.57;10.70;;;;;;;;;;5094002;28;20554;-96
2021/03/30 18:08:51;;;;;;;11.67;9.00;;;;;;;;;;5095602;28;20444;-95
2021/03/30 18:11:18;;;;;;;15.73;10.97;;;;;;;;;;5094590;28;20983;-94
2021/03/30 18:13:44;;;;;;;15.77;11.10;;;;;;;;;;5092486;28;20491;-94
2021/03/30 18:16:11;;;;;;;18.20;12.27;;;;;;;;;;5097069;28;20453;-95
2021/03/30 18:18:37;;;;;;;20.33;11.27;;;;;;;;;;5084007;28;20453;-93
2021/03/30 18:21:03;;;;;;;17.00;12.50;;;;;;;;;;5093507;28;20459;-93
2021/03/30 18:23:29;;;;;;;18.17;12.07;;;;;;;;;;5096481;28;20451;-96
2021/03/30 18:25:55;;;;;;;25.17;13.07;;;;;;;;;;5100281;28;20453;-94
2021/03/30 18:28:22;;;;;;;23.43;13.40;;;;;;;;;;5092654;28;20461;-95
2021/03/30 18:30:48;;;;;;;20.30;13.10;;;;;;;;;;5080990;28;21749;-95
2021/03/30 18:33:15;;;;;;;18.43;12.90;;;;;;;;;;5090961;28;20495;-95
2021/03/30 18:35:41;;;;;;;16.83;13.00;;;;;;;;;;5081549;28;20520;-93
2021/03/30 18:38:07;;;;;;;16.60;12.40;;;;;;;;;;5091174;28;20519;-93
2021/03/30 18:40:33;;;;;;;19.30;13.30;;;;;;;;;;5100469;28;20449;-95
2021/03/30 18:42:59;;;;;;;16.30;12.07;;;;;;;;;;5087339;28;20454;-94
2021/03/30 18:45:25;;;;;;;17.20;12.73;;;;;;;;;;5099590;28;20447;-95
2021/03/30 18:47:51;;;;;;;18.93;13.50;;;;;;;;;;5092649;28;20453;-95
2021/03/30 18:50:19;;;;;;;18.53;11.83;;;;;;;;;;5090231;28;20477;-96
2021/03/30 18:52:51;;;;;;;18.13;12.60;;;;;;;;;;5094716;28;20901;-96
2021/03/30 18:55:19;;;;;;;15.83;12.50;;;;;;;;;;5115041;28;20472;-95
2021/03/30 18:57:47;;;;;;;16.43;12.07;;;;;;;;;;5098731;28;20810;-95
2021/03/30 19:00:26;;;;;;;21.00;13.60;;;;;;;;;;5092827;28;21006;-95
2021/03/30 19:02:52;;;;;;;17.33;14.10;;;;;;;;;;5082266;28;20461;-94
2021/03/30 19:05:25;;;;;;;20.90;13.60;;;;;;;;;;5092389;28;20452;-96
2021/03/30 19:07:52;;;;;;;28.63;13.53;;;;;;;;;;5109429;23;20502;-96
2021/03/30 19:12:53;;;;;;;15.37;10.90;;;;;;;;;;4530751;26;20546;-96
2021/03/30 19:18:23;;;;;;;15.47;11.03;;;;;;;;;;5114395;22;20475;-95
2021/03/30 19:20:50;;;;;;;10.93;9.23;;;;;;;;;;5067638;28;20456;-96
2021/03/30 19:23:27;;;;;;;10.90;7.97;;;;;;;;;;5066610;28;20450;-96
2021/03/30 19:26:05;;;;;;;10.13;8.20;;;;;;;;;;5070187;28;20497;-96
2021/03/30 19:28:34;;;;;;;9.47;8.20;;;;;;;;;;5072729;28;20472;-96
2021/03/30 19:31:20;;;;;;;11.43;9.13;;;;;;;;;;5063355;28;20526;-96
2021/03/30 19:33:49;;;;;;;14.33;8.00;;;;;;;;;;5064354;28;20509;-96
2021/03/30 19:36:49;;;;;;;9.60;7.93;;;;;;;;;;5061833;28;20432;-95
2021/03/30 19:39:16;;;;;;;10.07;8.10;;;;;;;;;;5146982;22;20468;-96
2021/03/30 19:41:42;;;;;;;14.60;8.73;;;;;;;;;;5068780;28;20517;-96
2021/03/30 19:44:09;;;;;;;12.47;9.33;;;;;;;;;;5075149;28;20484;-96
2021/03/30 19:49:39;;;;;;;13.57;8.37;;;;;;;;;;5088614;28;20425;-96
2021/03/30 19:52:07;;;;;;;10.50;8.03;;;;;;;;;;5054018;28;20441;-95
2021/03/30 19:54:34;;;;;;;16.83;7.90;;;;;;;;;;5077371;28;20503;-96
2021/03/30 19:57:01;;;;;;;10.87;7.83;;;;;;;;;;5067302;28;20469;-95
2021/03/30 19:59:27;;;;;;;14.43;8.37;;;;;;;;;;5061917;28;20454;-96
2021/03/30 20:02:04;;;;;;;11.40;9.30;;;;;;;;;;5061426;28;20427;-96
2021/03/30 20:07:14;;;;;;;9.87;7.87;;;;;;;;;;5072881;28;20508;-96
2021/03/30 20:09:42;;;;;;;10.90;8.20;;;;;;;;;;5082351;28;20453;-96
2021/03/30 20:12:09;;;;;;;10.90;7.83;;;;;;;;;;5075123;28;20446;-93
2021/03/30 20:14:47;;;;;;;12.87;8.47;;;;;;;;;;5097214;28;20486;-96
2021/03/30 20:17:20;;;;;;;10.83;8.43;;;;;;;;;;5071893;28;20457;-96
2021/03/30 20:25:24;;;;;;;11.70;8.87;;;;;;;;;;5127566;22;20508;-96
2021/03/30 20:27:50;;;;;;;14.37;9.50;;;;;;;;;;5039150;28;20444;-96
2021/03/30 20:30:18;;;;;;;14.03;9.40;;;;;;;;;;5071550;28;20493;-95
2021/03/30 20:32:44;;;;;;;13.27;10.23;;;;;;;;;;5072702;28;20458;-93
2021/03/30 20:35:11;;;;;;;18.43;11.90;;;;;;;;;;5074316;28;20460;-94
2021/03/30 20:37:37;;;;;;;15.30;11.10;;;;;;;;;;5071745;28;20477;-95
2021/03/30 20:40:04;;;;;;;14.17;11.20;;;;;;;;;;5078874;28;20468;-96
2021/03/30 20:42:31;;;;;;;13.30;8.90;;;;;;;;;;5073772;28;20452;-94
2021/03/30 20:44:57;;;;;;;11.03;8.37;;;;;;;;;;5067579;28;20462;-94
2021/03/30 20:47:23;;;;;;;10.37;8.20;;;;;;;;;;5074510;28;20453;-96
2021/03/30 20:49:49;;;;;;;12.13;8.63;;;;;;;;;;5069820;28;20437;-96
2021/03/30 20:52:15;;;;;;;13.27;8.60;;;;;;;;;;5058766;28;20483;-96
2021/03/30 20:54:41;;;;;;;11.20;8.37;;;;;;;;;;5071378;28;20490;-96
2021/03/30 20:57:07;;;;;;;11.77;8.43;;;;;;;;;;5079879;28;20471;-96
2021/03/30 20:59:34;;;;;;;11.23;8.87;;;;;;;;;;5061215;28;20437;-96
2021/03/30 21:02:00;;;;;;;12.00;9.33;;;;;;;;;;5064327;28;20460;-96
2021/03/30 21:04:29;;;;;;;12.93;8.13;;;;;;;;;;5081082;28;20464;-95
2021/03/30 21:07:12;;;;;;;11.87;8.33;;;;;;;;;;5067062;28;20450;-96
2021/03/30 21:09:50;;;;;;;12.83;8.10;;;;;;;;;;5028907;28;20493;-95
2021/03/30 21:12:16;;;;;;;9.87;7.30;;;;;;;;;;5076038;28;20508;-94
2021/03/30 21:14:43;;;;;;;9.27;7.27;;;;;;;;;;5068865;28;20496;-90
2021/03/30 21:17:09;;;;;;;9.60;6.40;;;;;;;;;;5073039;28;20449;-92
2021/03/30 21:19:35;;;;;;;9.87;7.50;;;;;;;;;;5078961;28;20460;-93
2021/03/30 21:22:01;;;;;;;10.03;6.97;;;;;;;;;;5084660;28;20544;-96
2021/03/30 21:24:28;;;;;;;9.83;6.90;;;;;;;;;;5058871;28;20454;-96
2021/03/30 21:26:54;;;;;;;11.70;7.97;;;;;;;;;;5069886;28;20477;-95
2021/03/30 21:29:23;;;;;;;10.77;8.30;;;;;;;;;;5072723;28;20465;-95
2021/03/30 21:31:50;;;;;;;10.47;8.30;;;;;;;;;;5069565;28;20458;-91
2021/03/30 21:34:16;;;;;;;8.90;7.70;;;;;;;;;;5069823;28;20489;-91
2021/03/30 21:36:42;;;;;;;12.13;8.07;;;;;;;;;;5065887;28;20456;-95
2021/03/30 21:39:09;;;;;;;9.17;7.33;;;;;;;;;;5068671;28;20461;-96
2021/03/30 21:41:37;;;;;;;10.00;7.33;;;;;;;;;;5055544;28;20492;-96
2021/03/30 21:44:05;;;;;;;11.53;8.60;;;;;;;;;;5085072;28;20467;-96
2021/03/30 21:46:33;;;;;;;12.07;8.73;;;;;;;;;;5088149;28;20516;-96
2021/03/30 21:49:00;;;;;;;8.80;7.20;;;;;;;;;;5079949;28;20471;-95
2021/03/30 21:51:26;;;;;;;10.03;8.00;;;;;;;;;;5068943;28;20468;-96
2021/03/30 21:53:52;;;;;;;18.10;8.77;;;;;;;;;;5090192;28;20492;-92
2021/03/30 21:56:18;;;;;;;9.30;8.40;;;;;;;;;;5066566;28;20445;-92
2021/03/30 21:58:44;;;;;;;11.23;8.00;;;;;;;;;;5068533;28;20865;-92
2021/03/30 22:01:21;;;;;;;10.07;7.10;;;;;;;;;;5066909;28;20461;-96
2021/03/30 22:03:47;;;;;;;11.40;7.60;;;;;;;;;;5071345;28;20447;-93
2021/03/30 22:06:14;;;;;;;9.13;6.83;;;;;;;;;;5062685;28;20449;-94
2021/03/30 22:08:41;;;;;;;10.53;8.17;;;;;;;;;;5063984;28;20494;-95
2021/03/30 22:11:07;;;;;;;9.40;7.63;;;;;;;;;;5078281;28;20457;-95
2021/03/30 22:13:33;;;;;;;9.57;8.17;;;;;;;;;;5075589;28;20491;-96
2021/03/30 22:16:02;;;;;;;14.27;8.03;;;;;;;;;;5069416;28;20483;-96
2021/03/30 22:18:30;;;;;;;10.23;7.70;;;;;;;;;;5066914;28;20460;-96
2021/03/30 22:20:56;;;;;;;12.33;9.20;;;;;;;;;;5072475;28;20472;-94
2021/03/30 22:23:25;;;;;;;11.93;6.80;;;;;;;;;;5071600;28;20452;-94
2021/03/30 22:25:55;;;;;;;9.77;8.00;;;;;;;;;;5069886;28;20489;-96
2021/03/30 22:28:21;;;;;;;10.48;8.02;;;;;;;;;;5067782;28;20449;-96
2021/03/30 22:33:29;;;;;;;13.53;9.13;;;;;;;;;;5069428;28;20841;-96
2021/03/30 22:35:56;;;;;;;15.20;8.73;;;;;;;;;;5071723;28;20474;-96
2021/03/30 22:38:23;;;;;;;9.60;8.07;;;;;;;;;;5075710;28;20456;-96
2021/03/30 22:40:50;;;;;;;12.40;8.60;;;;;;;;;;5063746;28;20446;-93
2021/03/30 22:43:16;;;;;;;11.10;8.37;;;;;;;;;;5072908;28;20462;-92
2021/03/30 22:45:43;;;;;;;11.03;9.00;;;;;;;;;;5081137;28;20471;-94
2021/03/30 22:48:09;;;;;;;8.73;7.20;;;;;;;;;;5067143;28;20485;-96
2021/03/30 22:50:36;;;;;;;10.57;8.37;;;;;;;;;;5076379;28;20458;-95
2021/03/30 22:53:02;;;;;;;9.20;7.70;;;;;;;;;;5084920;28;20462;-95
2021/03/30 22:55:32;;;;;;;9.53;7.83;;;;;;;;;;5054073;28;20466;-96
2021/03/30 22:57:58;;;;;;;13.45;9.13;;;;;;;;;;5064971;28;20450;-96
2021/03/30 23:00:25;;;;;;;12.43;8.70;;;;;;;;;;5076322;28;20213;-96
2021/03/30 23:02:52;;;;;;;12.80;8.35;;;;;;;;;;5072963;28;20546;-96
2021/03/30 23:05:20;;;;;;;11.63;7.93;;;;;;;;;;5054170;28;20204;-96
2021/03/30 23:07:46;;;;;;;11.00;8.60;;;;;;;;;;5074827;28;20448;-92
2021/03/30 23:10:13;;;;;;;9.30;7.73;;;;;;;;;;5071345;28;20538;-91
2021/03/30 23:12:40;;;;;;;12.73;8.05;;;;;;;;;;5070618;28;20439;-96
2021/03/30 23:15:08;;;;;;;12.43;8.57;;;;;;;;;;5077443;28;20713;-96
2021/03/30 23:17:34;;;;;;;9.48;8.40;;;;;;;;;;5074229;28;20212;-95
2021/03/30 23:20:00;;;;;;;10.93;8.20;;;;;;;;;;5068025;28;20211;-96
2021/03/30 23:22:26;;;;;;;12.73;9.00;;;;;;;;;;5068750;28;20210;-96
2021/03/30 23:24:52;;;;;;;13.63;8.93;;;;;;;;;;5085357;28;20251;-96
2021/03/30 23:27:18;;;;;;;11.20;8.05;;;;;;;;;;5084936;28;20478;-96
2021/03/30 23:29:45;;;;;;;10.83;8.00;;;;;;;;;;5076381;28;20206;-95
2021/03/30 23:32:11;;;;;;;9.75;7.63;;;;;;;;;;5072186;28;20453;-95
2021/03/30 23:34:37;;;;;;;10.27;8.47;;;;;;;;;;5074045;28;20253;-96
2021/03/30 23:37:04;;;;;;;11.87;8.70;;;;;;;;;;5078067;28;20446;-95
2021/03/30 23:39:30;;;;;;;10.80;8.80;;;;;;;;;;5062656;28;20458;-95
2021/03/30 23:41:56;;;;;;;12.70;8.60;;;;;;;;;;5078243;28;20450;-96
2021/03/30 23:44:22;;;;;;;12.35;8.30;;;;;;;;;;5071095;28;20472;-92
2021/03/30 23:46:49;;;;;;;13.23;8.07;;;;;;;;;;5071840;28;20206;-95
2021/03/30 23:49:16;;;;;;;15.77;10.43;;;;;;;;;;5072352;28;20465;-94
2021/03/30 23:51:41;;;;;;;12.03;8.43;;;;;;;;;;5065345;28;20239;-94
2021/03/30 23:54:08;;;;;;;17.00;10.17;;;;;;;;;;5066603;28;20492;-95
2021/03/30 23:56:34;;;;;;;10.45;8.80;;;;;;;;;;5072135;28;20463;-95
2021/03/30 23:59:00;;;;;;;11.02;8.57;;;;;;;;;;5064710;28;20204;-93
